createdAt,value
2023-10-20T11:57:52.035Z,26.3
2023-10-20T12:07:51.282Z,25.8
2023-10-20T12:17:50.655Z,26.3
2023-10-20T12:27:49.883Z,26.2
2023-10-20T12:37:49.139Z,26.1
2023-10-20T12:47:48.473Z,25.9
2023-10-20T12:57:47.871Z,25.9
2023-10-20T13:07:47.039Z,26
2023-10-20T13:17:46.538Z,25.8
2023-10-20T13:27:45.797Z,25.7
2023-10-20T13:37:45.185Z,25.4
2023-10-20T13:47:44.574Z,25.3
2023-10-20T13:57:43.819Z,24.9
2023-10-20T14:07:43.068Z,24.9
2023-10-20T14:17:42.455Z,25.1
2023-10-20T14:27:41.628Z,25
2023-10-20T14:37:40.921Z,25.1
2023-10-20T14:47:40.208Z,24.7
2023-10-20T14:57:39.483Z,24.6
2023-10-20T15:07:38.747Z,24.6
2023-10-20T15:17:38.154Z,23.9
2023-10-20T15:27:37.342Z,23.4
2023-10-20T15:37:36.655Z,23.3
2023-10-20T15:47:36.001Z,23.1
2023-10-20T15:57:35.241Z,22.8
2023-10-20T16:07:34.514Z,22.7
2023-10-20T16:17:33.911Z,22.3
2023-10-20T16:27:33.109Z,22.4
2023-10-20T16:37:32.429Z,22.1
2023-10-20T16:47:31.739Z,22.1
2023-10-20T16:57:31.009Z,22.6
2023-10-20T17:07:30.282Z,22.9
2023-10-20T17:17:29.641Z,22.8
2023-10-20T17:27:28.889Z,23.1
2023-10-20T17:37:28.204Z,23.4
2023-10-20T17:47:27.571Z,23.4
2023-10-20T17:57:26.808Z,22.8
2023-10-20T18:07:26.091Z,22.8
2023-10-20T18:17:25.470Z,22.4
2023-10-20T18:27:24.707Z,22.3
2023-10-20T18:37:24.022Z,22
2023-10-20T18:47:23.309Z,21.8
2023-10-20T18:57:22.630Z,21.2
2023-10-20T19:07:21.918Z,20.4
2023-10-20T19:17:21.250Z,20.5
2023-10-20T19:27:20.530Z,20.1
2023-10-20T19:37:19.852Z,22.2
2023-10-20T19:47:19.139Z,20.9
2023-10-20T19:57:18.464Z,20.8
2023-10-20T20:07:17.750Z,21.4
2023-10-20T20:17:17.071Z,21.3
2023-10-20T20:27:16.362Z,21.1
2023-10-20T20:37:15.685Z,20.1
2023-10-20T20:47:14.986Z,19.8
2023-10-20T20:57:14.328Z,20.9
2023-10-20T21:07:13.590Z,19.8
2023-10-20T21:17:12.901Z,20.1
2023-10-20T21:27:12.191Z,19.3
2023-10-20T21:37:11.478Z,19.1
2023-10-20T21:47:10.734Z,19.9
2023-10-20T21:57:10.080Z,19.4
2023-10-20T22:07:09.345Z,19.2
2023-10-20T22:17:08.698Z,18.9
2023-10-20T22:27:07.962Z,18.3
2023-10-20T22:37:07.296Z,19.1
2023-10-20T22:47:06.558Z,18.4
2023-10-20T22:57:05.914Z,18
2023-10-20T23:07:05.174Z,17.6
2023-10-20T23:17:04.563Z,17.3
2023-10-20T23:27:03.830Z,17.1
2023-10-20T23:37:03.165Z,16.8
2023-10-20T23:47:02.403Z,16.6
2023-10-20T23:57:01.753Z,16.6
